sensor_id;sensor_type;location;lat;lon;timestamp;temperature;humidity
25342;DHT22;13298;48.792;9.154;2023-12-07T00:01:06;2.10;99.90
25342;DHT22;13298;48.792;9.154;2023-12-07T00:03:31;2.10;99.90
25342;DHT22;13298;48.792;9.154;2023-12-07T00:05:57;2.20;99.90
25342;DHT22;13298;48.792;9.154;2023-12-07T00:08:23;2.20;99.90
25342;DHT22;13298;48.792;9.154;2023-12-07T00:10:48;2.20;99.90
25342;DHT22;13298;48.792;9.154;2023-12-07T00:13:14;2.10;99.90
25342;DHT22;13298;48.792;9.154;2023-12-07T00:15:40;2.10;99.90
25342;DHT22;13298;48.792;9.154;2023-12-07T00:18:06;2.10;99.90
25342;DHT22;13298;48.792;9.154;2023-12-07T00:20:31;2.20;99.90
25342;DHT22;13298;48.792;9.154;2023-12-07T00:22:57;2.10;99.90
25342;DHT22;13298;48.792;9.154;2023-12-07T00:25:23;2.20;99.90
25342;DHT22;13298;48.792;9.154;2023-12-07T00:27:49;2.20;99.90
25342;DHT22;13298;48.792;9.154;2023-12-07T00:30:15;2.20;99.90
25342;DHT22;13298;48.792;9.154;2023-12-07T00:32:41;2.20;99.90
25342;DHT22;13298;48.792;9.154;2023-12-07T00:35:12;2.20;99.90
25342;DHT22;13298;48.792;9.154;2023-12-07T00:37:38;2.20;99.90
25342;DHT22;13298;48.792;9.154;2023-12-07T00:40:04;2.30;99.90
25342;DHT22;13298;48.792;9.154;2023-12-07T00:42:30;2.30;99.90
25342;DHT22;13298;48.792;9.154;2023-12-07T00:44:56;2.30;99.90
25342;DHT22;13298;48.792;9.154;2023-12-07T00:47:22;2.30;99.90
25342;DHT22;13298;48.792;9.154;2023-12-07T00:49:49;2.30;99.90
25342;DHT22;13298;48.792;9.154;2023-12-07T00:52:14;2.30;99.90
25342;DHT22;13298;48.792;9.154;2023-12-07T00:54:40;2.30;99.90
25342;DHT22;13298;48.792;9.154;2023-12-07T00:57:06;2.30;99.90
25342;DHT22;13298;48.792;9.154;2023-12-07T00:59:32;2.40;99.90
25342;DHT22;13298;48.792;9.154;2023-12-07T01:02:05;2.40;99.90
25342;DHT22;13298;48.792;9.154;2023-12-07T01:04:33;2.40;99.90
25342;DHT22;13298;48.792;9.154;2023-12-07T01:06:59;2.40;99.90
25342;DHT22;13298;48.792;9.154;2023-12-07T01:09:25;2.40;99.90
25342;DHT22;13298;48.792;9.154;2023-12-07T01:11:52;2.40;99.90
25342;DHT22;13298;48.792;9.154;2023-12-07T01:14:18;2.40;99.90
25342;DHT22;13298;48.792;9.154;2023-12-07T01:16:44;2.50;99.90
25342;DHT22;13298;48.792;9.154;2023-12-07T01:19:10;2.50;99.90
25342;DHT22;13298;48.792;9.154;2023-12-07T01:21:42;2.50;99.90
25342;DHT22;13298;48.792;9.154;2023-12-07T01:24:08;2.50;99.90
25342;DHT22;13298;48.792;9.154;2023-12-07T01:26:34;2.50;99.90
25342;DHT22;13298;48.792;9.154;2023-12-07T01:29:00;2.50;99.90
25342;DHT22;13298;48.792;9.154;2023-12-07T01:31:26;2.50;99.90
25342;DHT22;13298;48.792;9.154;2023-12-07T01:33:52;2.50;99.90
25342;DHT22;13298;48.792;9.154;2023-12-07T01:36:17;2.50;99.90
25342;DHT22;13298;48.792;9.154;2023-12-07T01:38:43;2.50;99.90
25342;DHT22;13298;48.792;9.154;2023-12-07T01:41:09;2.50;99.90
25342;DHT22;13298;48.792;9.154;2023-12-07T01:43:35;2.50;99.90
25342;DHT22;13298;48.792;9.154;2023-12-07T01:46:01;2.50;99.90
25342;DHT22;13298;48.792;9.154;2023-12-07T01:48:28;2.40;99.90
25342;DHT22;13298;48.792;9.154;2023-12-07T01:50:56;2.30;99.90
25342;DHT22;13298;48.792;9.154;2023-12-07T01:53:23;2.30;99.90
25342;DHT22;13298;48.792;9.154;2023-12-07T01:55:51;2.20;99.90
25342;DHT22;13298;48.792;9.154;2023-12-07T01:58:17;2.20;99.90
25342;DHT22;13298;48.792;9.154;2023-12-07T02:00:43;2.10;99.90
25342;DHT22;13298;48.792;9.154;2023-12-07T02:03:10;2.10;99.90
25342;DHT22;13298;48.792;9.154;2023-12-07T02:05:37;2.10;99.90
25342;DHT22;13298;48.792;9.154;2023-12-07T02:08:07;2.00;99.90
25342;DHT22;13298;48.792;9.154;2023-12-07T02:10:33;2.10;99.90
25342;DHT22;13298;48.792;9.154;2023-12-07T02:12:59;2.10;99.90
25342;DHT22;13298;48.792;9.154;2023-12-07T02:15:25;2.10;99.90
25342;DHT22;13298;48.792;9.154;2023-12-07T02:17:57;2.10;99.90
25342;DHT22;13298;48.792;9.154;2023-12-07T02:23:18;2.00;99.90
25342;DHT22;13298;48.792;9.154;2023-12-07T02:25:51;1.90;99.90
25342;DHT22;13298;48.792;9.154;2023-12-07T02:28:17;1.80;99.90
25342;DHT22;13298;48.792;9.154;2023-12-07T02:30:43;1.70;99.90
25342;DHT22;13298;48.792;9.154;2023-12-07T02:33:09;1.70;99.90
25342;DHT22;13298;48.792;9.154;2023-12-07T02:35:37;1.60;99.90
25342;DHT22;13298;48.792;9.154;2023-12-07T02:38:03;1.60;99.90
25342;DHT22;13298;48.792;9.154;2023-12-07T02:40:31;1.60;99.90
25342;DHT22;13298;48.792;9.154;2023-12-07T02:42:58;1.50;99.90
25342;DHT22;13298;48.792;9.154;2023-12-07T02:45:25;1.50;99.90
25342;DHT22;13298;48.792;9.154;2023-12-07T02:47:52;1.40;99.90
25342;DHT22;13298;48.792;9.154;2023-12-07T02:50:18;1.40;99.90
25342;DHT22;13298;48.792;9.154;2023-12-07T02:52:44;1.40;99.90
25342;DHT22;13298;48.792;9.154;2023-12-07T02:55:10;1.40;99.90
25342;DHT22;13298;48.792;9.154;2023-12-07T02:57:36;1.50;99.90
25342;DHT22;13298;48.792;9.154;2023-12-07T03:00:06;1.50;99.90
25342;DHT22;13298;48.792;9.154;2023-12-07T03:02:38;1.60;99.90
25342;DHT22;13298;48.792;9.154;2023-12-07T03:05:05;1.60;99.90
25342;DHT22;13298;48.792;9.154;2023-12-07T03:07:32;1.60;99.90
25342;DHT22;13298;48.792;9.154;2023-12-07T03:09:58;1.60;99.90
25342;DHT22;13298;48.792;9.154;2023-12-07T03:12:24;1.70;99.90
25342;DHT22;13298;48.792;9.154;2023-12-07T03:14:49;1.70;99.90
25342;DHT22;13298;48.792;9.154;2023-12-07T03:17:15;1.70;99.90
25342;DHT22;13298;48.792;9.154;2023-12-07T03:19:41;1.80;99.90
25342;DHT22;13298;48.792;9.154;2023-12-07T03:22:07;1.70;99.90
25342;DHT22;13298;48.792;9.154;2023-12-07T03:24:35;1.70;99.90
25342;DHT22;13298;48.792;9.154;2023-12-07T03:27:01;1.70;99.90
25342;DHT22;13298;48.792;9.154;2023-12-07T03:29:27;1.60;99.90
25342;DHT22;13298;48.792;9.154;2023-12-07T03:31:52;1.50;99.90
25342;DHT22;13298;48.792;9.154;2023-12-07T03:34:18;1.50;99.90
25342;DHT22;13298;48.792;9.154;2023-12-07T03:36:47;1.40;99.90
25342;DHT22;13298;48.792;9.154;2023-12-07T03:39:14;1.20;99.90
25342;DHT22;13298;48.792;9.154;2023-12-07T03:41:41;1.10;99.90
25342;DHT22;13298;48.792;9.154;2023-12-07T03:44:06;1.10;99.90
25342;DHT22;13298;48.792;9.154;2023-12-07T03:46:32;1.00;99.90
25342;DHT22;13298;48.792;9.154;2023-12-07T03:48:58;0.90;99.90
25342;DHT22;13298;48.792;9.154;2023-12-07T03:51:26;0.80;99.90
25342;DHT22;13298;48.792;9.154;2023-12-07T03:53:53;0.80;99.90
25342;DHT22;13298;48.792;9.154;2023-12-07T03:56:30;0.70;99.90
25342;DHT22;13298;48.792;9.154;2023-12-07T03:58:56;0.60;99.90
25342;DHT22;13298;48.792;9.154;2023-12-07T04:01:26;0.50;99.90
25342;DHT22;13298;48.792;9.154;2023-12-07T04:03:54;0.50;99.90
25342;DHT22;13298;48.792;9.154;2023-12-07T04:06:22;0.40;99.90
25342;DHT22;13298;48.792;9.154;2023-12-07T04:08:48;0.40;99.90
25342;DHT22;13298;48.792;9.154;2023-12-07T04:11:14;0.30;99.90
25342;DHT22;13298;48.792;9.154;2023-12-07T04:13:41;0.30;99.90
25342;DHT22;13298;48.792;9.154;2023-12-07T04:16:08;0.20;99.90
25342;DHT22;13298;48.792;9.154;2023-12-07T04:18:34;0.20;99.90
25342;DHT22;13298;48.792;9.154;2023-12-07T04:20:59;0.10;99.90
25342;DHT22;13298;48.792;9.154;2023-12-07T04:23:25;0.10;99.90
25342;DHT22;13298;48.792;9.154;2023-12-07T04:25:51;0.00;99.90
25342;DHT22;13298;48.792;9.154;2023-12-07T04:28:17;0.00;99.90
25342;DHT22;13298;48.792;9.154;2023-12-07T04:30:42;0.00;99.90
25342;DHT22;13298;48.792;9.154;2023-12-07T04:33:08;0.00;99.90
25342;DHT22;13298;48.792;9.154;2023-12-07T04:35:34;-0.10;99.90
25342;DHT22;13298;48.792;9.154;2023-12-07T04:38:00;-0.10;99.90
25342;DHT22;13298;48.792;9.154;2023-12-07T04:40:26;-0.10;99.90
25342;DHT22;13298;48.792;9.154;2023-12-07T04:42:52;-0.10;99.90
25342;DHT22;13298;48.792;9.154;2023-12-07T04:45:17;-0.10;99.90
25342;DHT22;13298;48.792;9.154;2023-12-07T04:47:43;-0.10;99.90
25342;DHT22;13298;48.792;9.154;2023-12-07T04:50:09;-0.20;99.90
25342;DHT22;13298;48.792;9.154;2023-12-07T04:52:35;-0.20;99.90
25342;DHT22;13298;48.792;9.154;2023-12-07T04:55:01;-0.30;99.90
25342;DHT22;13298;48.792;9.154;2023-12-07T04:57:27;-0.30;99.90
25342;DHT22;13298;48.792;9.154;2023-12-07T04:59:52;-0.40;99.90
25342;DHT22;13298;48.792;9.154;2023-12-07T05:02:18;-0.40;99.90
25342;DHT22;13298;48.792;9.154;2023-12-07T05:04:44;-0.40;99.90
25342;DHT22;13298;48.792;9.154;2023-12-07T05:07:11;-0.50;99.90
25342;DHT22;13298;48.792;9.154;2023-12-07T05:09:39;-0.50;99.90
25342;DHT22;13298;48.792;9.154;2023-12-07T05:12:06;-0.50;99.90
25342;DHT22;13298;48.792;9.154;2023-12-07T05:14:32;-0.60;99.90
25342;DHT22;13298;48.792;9.154;2023-12-07T05:16:58;-0.60;99.90
25342;DHT22;13298;48.792;9.154;2023-12-07T05:19:24;-0.60;99.90
25342;DHT22;13298;48.792;9.154;2023-12-07T05:21:51;-0.70;99.90
25342;DHT22;13298;48.792;9.154;2023-12-07T05:24:17;-0.70;99.90
25342;DHT22;13298;48.792;9.154;2023-12-07T05:26:44;-0.70;99.90
25342;DHT22;13298;48.792;9.154;2023-12-07T05:29:11;-0.70;99.90
25342;DHT22;13298;48.792;9.154;2023-12-07T05:31:38;-0.70;99.90
25342;DHT22;13298;48.792;9.154;2023-12-07T05:34:04;-0.70;99.90
25342;DHT22;13298;48.792;9.154;2023-12-07T05:36:30;-0.80;99.90
25342;DHT22;13298;48.792;9.154;2023-12-07T05:38:56;-0.80;99.90
25342;DHT22;13298;48.792;9.154;2023-12-07T05:41:22;-0.80;99.90
25342;DHT22;13298;48.792;9.154;2023-12-07T05:43:47;-0.80;99.90
25342;DHT22;13298;48.792;9.154;2023-12-07T05:46:14;-0.80;99.90
25342;DHT22;13298;48.792;9.154;2023-12-07T05:48:40;-0.80;99.90
25342;DHT22;13298;48.792;9.154;2023-12-07T05:51:05;-0.90;99.90
25342;DHT22;13298;48.792;9.154;2023-12-07T05:53:31;-0.90;99.90
25342;DHT22;13298;48.792;9.154;2023-12-07T05:55:58;-0.90;99.90
25342;DHT22;13298;48.792;9.154;2023-12-07T05:58:24;-0.90;99.90
25342;DHT22;13298;48.792;9.154;2023-12-07T06:00:50;-0.90;99.90
25342;DHT22;13298;48.792;9.154;2023-12-07T06:03:16;-0.90;99.90
25342;DHT22;13298;48.792;9.154;2023-12-07T06:05:42;-0.90;99.90
25342;DHT22;13298;48.792;9.154;2023-12-07T06:08:08;-0.90;99.90
25342;DHT22;13298;48.792;9.154;2023-12-07T06:10:34;-0.90;99.90
25342;DHT22;13298;48.792;9.154;2023-12-07T06:13:01;-0.90;99.90
25342;DHT22;13298;48.792;9.154;2023-12-07T06:15:27;-0.90;99.90
25342;DHT22;13298;48.792;9.154;2023-12-07T06:17:54;-0.90;99.90
25342;DHT22;13298;48.792;9.154;2023-12-07T06:20:20;-0.90;99.90
25342;DHT22;13298;48.792;9.154;2023-12-07T06:22:46;-0.90;99.90
25342;DHT22;13298;48.792;9.154;2023-12-07T06:25:12;-1.00;99.90
25342;DHT22;13298;48.792;9.154;2023-12-07T06:27:38;-1.00;99.90
25342;DHT22;13298;48.792;9.154;2023-12-07T06:30:05;-1.00;99.90
25342;DHT22;13298;48.792;9.154;2023-12-07T06:32:31;-1.00;99.90
25342;DHT22;13298;48.792;9.154;2023-12-07T06:34:57;-1.00;99.90
25342;DHT22;13298;48.792;9.154;2023-12-07T06:37:23;-1.10;99.90
25342;DHT22;13298;48.792;9.154;2023-12-07T06:39:49;-1.10;99.90
25342;DHT22;13298;48.792;9.154;2023-12-07T06:42:15;-1.10;99.90
25342;DHT22;13298;48.792;9.154;2023-12-07T06:44:46;-1.10;99.90
25342;DHT22;13298;48.792;9.154;2023-12-07T06:47:12;-1.10;99.90
25342;DHT22;13298;48.792;9.154;2023-12-07T06:49:38;-1.10;99.90
25342;DHT22;13298;48.792;9.154;2023-12-07T06:52:04;-1.10;99.90
25342;DHT22;13298;48.792;9.154;2023-12-07T06:54:29;-1.10;99.90
25342;DHT22;13298;48.792;9.154;2023-12-07T06:56:55;-1.10;99.90
25342;DHT22;13298;48.792;9.154;2023-12-07T06:59:21;-1.10;99.90
25342;DHT22;13298;48.792;9.154;2023-12-07T07:01:47;-1.10;99.90
25342;DHT22;13298;48.792;9.154;2023-12-07T07:04:13;-1.10;99.90
25342;DHT22;13298;48.792;9.154;2023-12-07T07:06:40;-1.20;99.90
25342;DHT22;13298;48.792;9.154;2023-12-07T07:09:06;-1.20;99.90
25342;DHT22;13298;48.792;9.154;2023-12-07T07:11:32;-1.20;99.90
25342;DHT22;13298;48.792;9.154;2023-12-07T07:13:58;-1.20;99.90
25342;DHT22;13298;48.792;9.154;2023-12-07T07:16:24;-1.20;99.90
25342;DHT22;13298;48.792;9.154;2023-12-07T07:18:50;-1.20;99.90
25342;DHT22;13298;48.792;9.154;2023-12-07T07:21:15;-1.20;99.90
25342;DHT22;13298;48.792;9.154;2023-12-07T07:23:41;-1.10;99.90
25342;DHT22;13298;48.792;9.154;2023-12-07T07:26:07;-1.10;99.90
25342;DHT22;13298;48.792;9.154;2023-12-07T07:28:33;-1.10;99.90
25342;DHT22;13298;48.792;9.154;2023-12-07T07:31:00;-1.10;99.90
25342;DHT22;13298;48.792;9.154;2023-12-07T07:33:25;-1.10;99.90
25342;DHT22;13298;48.792;9.154;2023-12-07T07:35:51;-1.10;99.90
25342;DHT22;13298;48.792;9.154;2023-12-07T07:38:17;-1.00;99.90
25342;DHT22;13298;48.792;9.154;2023-12-07T07:40:43;-0.90;99.90
25342;DHT22;13298;48.792;9.154;2023-12-07T07:43:10;-0.90;99.90
25342;DHT22;13298;48.792;9.154;2023-12-07T07:45:36;-0.90;99.90
25342;DHT22;13298;48.792;9.154;2023-12-07T07:48:02;-0.90;99.90
25342;DHT22;13298;48.792;9.154;2023-12-07T07:50:28;-0.90;99.90
25342;DHT22;13298;48.792;9.154;2023-12-07T07:52:55;-0.80;99.90
25342;DHT22;13298;48.792;9.154;2023-12-07T07:55:20;-0.70;99.90
25342;DHT22;13298;48.792;9.154;2023-12-07T07:57:46;-0.70;99.90
25342;DHT22;13298;48.792;9.154;2023-12-07T08:00:12;-0.70;99.90
25342;DHT22;13298;48.792;9.154;2023-12-07T08:02:38;-0.70;99.90
25342;DHT22;13298;48.792;9.154;2023-12-07T08:05:04;-0.60;99.90
25342;DHT22;13298;48.792;9.154;2023-12-07T08:07:30;-0.60;99.90
25342;DHT22;13298;48.792;9.154;2023-12-07T08:09:56;-0.60;99.90
25342;DHT22;13298;48.792;9.154;2023-12-07T08:12:21;-0.50;99.90
25342;DHT22;13298;48.792;9.154;2023-12-07T08:14:50;-0.50;99.90
25342;DHT22;13298;48.792;9.154;2023-12-07T08:17:16;-0.40;99.90
25342;DHT22;13298;48.792;9.154;2023-12-07T08:19:42;-0.30;99.90
25342;DHT22;13298;48.792;9.154;2023-12-07T08:22:08;-0.30;99.90
25342;DHT22;13298;48.792;9.154;2023-12-07T08:24:34;-0.30;99.90
25342;DHT22;13298;48.792;9.154;2023-12-07T08:27:00;-0.20;99.90
25342;DHT22;13298;48.792;9.154;2023-12-07T08:29:26;-0.20;99.90
25342;DHT22;13298;48.792;9.154;2023-12-07T08:31:52;-0.20;99.90
25342;DHT22;13298;48.792;9.154;2023-12-07T08:34:17;-0.10;99.90
25342;DHT22;13298;48.792;9.154;2023-12-07T08:36:43;0.00;99.90
25342;DHT22;13298;48.792;9.154;2023-12-07T08:39:09;0.00;99.90
25342;DHT22;13298;48.792;9.154;2023-12-07T08:41:35;0.10;99.90
25342;DHT22;13298;48.792;9.154;2023-12-07T08:44:02;0.20;99.90
25342;DHT22;13298;48.792;9.154;2023-12-07T08:46:28;0.20;99.90
25342;DHT22;13298;48.792;9.154;2023-12-07T08:48:53;0.20;99.90
25342;DHT22;13298;48.792;9.154;2023-12-07T08:51:19;0.30;99.90
25342;DHT22;13298;48.792;9.154;2023-12-07T08:53:45;0.30;99.90
25342;DHT22;13298;48.792;9.154;2023-12-07T08:56:11;0.30;99.90
25342;DHT22;13298;48.792;9.154;2023-12-07T08:58:38;0.40;99.90
25342;DHT22;13298;48.792;9.154;2023-12-07T09:01:04;0.40;99.90
25342;DHT22;13298;48.792;9.154;2023-12-07T09:03:33;0.50;99.90
25342;DHT22;13298;48.792;9.154;2023-12-07T09:06:00;0.50;99.90
25342;DHT22;13298;48.792;9.154;2023-12-07T09:08:26;0.50;99.90
25342;DHT22;13298;48.792;9.154;2023-12-07T09:10:52;0.60;99.90
25342;DHT22;13298;48.792;9.154;2023-12-07T09:13:18;0.60;99.90
25342;DHT22;13298;48.792;9.154;2023-12-07T09:15:44;0.70;99.90
25342;DHT22;13298;48.792;9.154;2023-12-07T09:18:09;0.80;99.90
25342;DHT22;13298;48.792;9.154;2023-12-07T09:20:39;0.90;99.90
25342;DHT22;13298;48.792;9.154;2023-12-07T09:23:14;0.90;99.90
25342;DHT22;13298;48.792;9.154;2023-12-07T09:25:41;1.00;99.90
25342;DHT22;13298;48.792;9.154;2023-12-07T09:28:07;1.10;99.90
25342;DHT22;13298;48.792;9.154;2023-12-07T09:30:33;1.10;99.90
25342;DHT22;13298;48.792;9.154;2023-12-07T09:33:00;1.10;99.90
25342;DHT22;13298;48.792;9.154;2023-12-07T09:35:29;1.20;99.90
25342;DHT22;13298;48.792;9.154;2023-12-07T09:37:54;1.20;99.90
25342;DHT22;13298;48.792;9.154;2023-12-07T09:40:21;1.20;99.90
25342;DHT22;13298;48.792;9.154;2023-12-07T09:42:48;1.20;99.90
25342;DHT22;13298;48.792;9.154;2023-12-07T09:45:15;1.30;99.90
25342;DHT22;13298;48.792;9.154;2023-12-07T09:47:49;1.40;99.90
25342;DHT22;13298;48.792;9.154;2023-12-07T09:50:24;1.40;99.90
25342;DHT22;13298;48.792;9.154;2023-12-07T09:52:52;1.40;99.90
25342;DHT22;13298;48.792;9.154;2023-12-07T09:55:22;1.50;99.90
25342;DHT22;13298;48.792;9.154;2023-12-07T09:57:51;1.50;99.90
25342;DHT22;13298;48.792;9.154;2023-12-07T10:00:17;1.50;99.90
25342;DHT22;13298;48.792;9.154;2023-12-07T10:02:45;1.60;99.90
25342;DHT22;13298;48.792;9.154;2023-12-07T10:05:13;1.60;99.90
25342;DHT22;13298;48.792;9.154;2023-12-07T10:07:41;1.70;99.90
25342;DHT22;13298;48.792;9.154;2023-12-07T10:10:07;1.70;99.90
25342;DHT22;13298;48.792;9.154;2023-12-07T10:12:35;1.80;99.90
25342;DHT22;13298;48.792;9.154;2023-12-07T10:15:11;1.80;99.90
25342;DHT22;13298;48.792;9.154;2023-12-07T10:17:45;1.90;99.90
25342;DHT22;13298;48.792;9.154;2023-12-07T10:20:19;1.90;99.90
25342;DHT22;13298;48.792;9.154;2023-12-07T10:23:06;2.00;99.90
25342;DHT22;13298;48.792;9.154;2023-12-07T10:25:36;2.00;99.90
25342;DHT22;13298;48.792;9.154;2023-12-07T10:28:07;2.10;99.90
25342;DHT22;13298;48.792;9.154;2023-12-07T10:30:36;2.10;99.90
25342;DHT22;13298;48.792;9.154;2023-12-07T10:33:03;2.20;99.90
25342;DHT22;13298;48.792;9.154;2023-12-07T10:35:31;2.20;99.90
25342;DHT22;13298;48.792;9.154;2023-12-07T10:37:57;2.20;99.90
25342;DHT22;13298;48.792;9.154;2023-12-07T10:40:23;2.30;99.90
25342;DHT22;13298;48.792;9.154;2023-12-07T10:42:49;2.30;99.90
25342;DHT22;13298;48.792;9.154;2023-12-07T10:45:22;2.30;99.90
25342;DHT22;13298;48.792;9.154;2023-12-07T10:47:51;2.40;99.90
25342;DHT22;13298;48.792;9.154;2023-12-07T10:50:22;2.40;99.90
25342;DHT22;13298;48.792;9.154;2023-12-07T10:52:52;2.40;99.90
25342;DHT22;13298;48.792;9.154;2023-12-07T10:55:22;2.50;99.90
25342;DHT22;13298;48.792;9.154;2023-12-07T10:57:55;2.50;99.90
25342;DHT22;13298;48.792;9.154;2023-12-07T11:00:22;2.50;99.90
25342;DHT22;13298;48.792;9.154;2023-12-07T11:02:53;2.50;99.90
25342;DHT22;13298;48.792;9.154;2023-12-07T11:05:19;2.50;99.90
25342;DHT22;13298;48.792;9.154;2023-12-07T11:07:59;2.50;99.90
25342;DHT22;13298;48.792;9.154;2023-12-07T11:10:56;2.60;99.90
25342;DHT22;13298;48.792;9.154;2023-12-07T11:13:38;2.60;99.90
25342;DHT22;13298;48.792;9.154;2023-12-07T11:16:05;2.60;99.90
25342;DHT22;13298;48.792;9.154;2023-12-07T11:18:31;2.60;99.90
25342;DHT22;13298;48.792;9.154;2023-12-07T11:20:58;2.70;99.90
25342;DHT22;13298;48.792;9.154;2023-12-07T11:23:24;2.80;99.90
25342;DHT22;13298;48.792;9.154;2023-12-07T11:25:52;2.70;99.90
25342;DHT22;13298;48.792;9.154;2023-12-07T11:28:35;2.70;99.90
25342;DHT22;13298;48.792;9.154;2023-12-07T11:31:02;2.80;99.90
25342;DHT22;13298;48.792;9.154;2023-12-07T11:33:29;2.80;99.90
25342;DHT22;13298;48.792;9.154;2023-12-07T11:38:27;2.80;99.90
25342;DHT22;13298;48.792;9.154;2023-12-07T11:40:54;2.90;99.90
25342;DHT22;13298;48.792;9.154;2023-12-07T11:45:59;3.00;99.90
25342;DHT22;13298;48.792;9.154;2023-12-07T11:48:25;3.00;99.90
25342;DHT22;13298;48.792;9.154;2023-12-07T11:55:56;3.10;99.90
25342;DHT22;13298;48.792;9.154;2023-12-07T11:58:29;3.10;99.90
25342;DHT22;13298;48.792;9.154;2023-12-07T12:00:56;3.20;99.90
25342;DHT22;13298;48.792;9.154;2023-12-07T12:03:26;3.20;99.90
25342;DHT22;13298;48.792;9.154;2023-12-07T12:05:53;3.30;99.90
25342;DHT22;13298;48.792;9.154;2023-12-07T12:08:22;3.30;99.90
25342;DHT22;13298;48.792;9.154;2023-12-07T12:10:50;3.30;99.90
25342;DHT22;13298;48.792;9.154;2023-12-07T12:13:18;3.40;99.90
25342;DHT22;13298;48.792;9.154;2023-12-07T12:15:45;3.30;99.90
25342;DHT22;13298;48.792;9.154;2023-12-07T12:18:14;3.40;99.90
25342;DHT22;13298;48.792;9.154;2023-12-07T12:20:41;3.30;99.90
25342;DHT22;13298;48.792;9.154;2023-12-07T12:23:08;3.30;99.90
25342;DHT22;13298;48.792;9.154;2023-12-07T12:25:34;3.30;99.90
25342;DHT22;13298;48.792;9.154;2023-12-07T12:28:04;3.30;99.90
25342;DHT22;13298;48.792;9.154;2023-12-07T12:30:31;3.30;99.90
25342;DHT22;13298;48.792;9.154;2023-12-07T12:32:58;3.30;99.90
25342;DHT22;13298;48.792;9.154;2023-12-07T12:35:25;3.30;99.90
25342;DHT22;13298;48.792;9.154;2023-12-07T12:37:51;3.30;99.90
25342;DHT22;13298;48.792;9.154;2023-12-07T12:40:18;3.40;99.90
25342;DHT22;13298;48.792;9.154;2023-12-07T12:42:46;3.40;99.90
25342;DHT22;13298;48.792;9.154;2023-12-07T12:45:14;3.40;99.90
25342;DHT22;13298;48.792;9.154;2023-12-07T12:47:41;3.40;99.90
25342;DHT22;13298;48.792;9.154;2023-12-07T12:50:09;3.40;99.90
25342;DHT22;13298;48.792;9.154;2023-12-07T12:52:36;3.40;99.90
25342;DHT22;13298;48.792;9.154;2023-12-07T12:55:02;3.40;99.90
25342;DHT22;13298;48.792;9.154;2023-12-07T12:57:32;3.40;99.90
25342;DHT22;13298;48.792;9.154;2023-12-07T13:00:00;3.40;99.90
25342;DHT22;13298;48.792;9.154;2023-12-07T13:02:27;3.40;99.90
25342;DHT22;13298;48.792;9.154;2023-12-07T13:04:52;3.40;99.90
25342;DHT22;13298;48.792;9.154;2023-12-07T13:07:19;3.50;99.90
25342;DHT22;13298;48.792;9.154;2023-12-07T13:09:45;3.50;99.90
25342;DHT22;13298;48.792;9.154;2023-12-07T13:12:11;3.50;99.90
25342;DHT22;13298;48.792;9.154;2023-12-07T13:14:37;3.60;99.90
25342;DHT22;13298;48.792;9.154;2023-12-07T13:17:05;3.60;99.90
25342;DHT22;13298;48.792;9.154;2023-12-07T13:19:33;3.60;99.90
25342;DHT22;13298;48.792;9.154;2023-12-07T13:22:00;3.50;99.90
25342;DHT22;13298;48.792;9.154;2023-12-07T13:24:26;3.50;99.90
25342;DHT22;13298;48.792;9.154;2023-12-07T13:26:51;3.50;99.90
25342;DHT22;13298;48.792;9.154;2023-12-07T13:29:17;3.40;99.90
25342;DHT22;13298;48.792;9.154;2023-12-07T13:31:43;3.40;99.90
25342;DHT22;13298;48.792;9.154;2023-12-07T13:34:08;3.40;99.90
25342;DHT22;13298;48.792;9.154;2023-12-07T13:36:34;3.40;99.90
25342;DHT22;13298;48.792;9.154;2023-12-07T13:39:01;3.30;99.90
25342;DHT22;13298;48.792;9.154;2023-12-07T13:41:30;3.30;99.90
25342;DHT22;13298;48.792;9.154;2023-12-07T13:43:55;3.30;99.90
25342;DHT22;13298;48.792;9.154;2023-12-07T13:46:21;3.30;99.90
25342;DHT22;13298;48.792;9.154;2023-12-07T13:48:48;3.20;99.90
25342;DHT22;13298;48.792;9.154;2023-12-07T13:51:15;3.30;99.90
25342;DHT22;13298;48.792;9.154;2023-12-07T13:53:41;3.30;99.90
25342;DHT22;13298;48.792;9.154;2023-12-07T13:56:07;3.30;99.90
25342;DHT22;13298;48.792;9.154;2023-12-07T13:58:33;3.40;99.90
25342;DHT22;13298;48.792;9.154;2023-12-07T14:01:00;3.50;99.90
25342;DHT22;13298;48.792;9.154;2023-12-07T14:03:26;3.50;99.90
25342;DHT22;13298;48.792;9.154;2023-12-07T14:05:52;3.50;99.90
25342;DHT22;13298;48.792;9.154;2023-12-07T14:08:18;3.60;99.90
25342;DHT22;13298;48.792;9.154;2023-12-07T14:10:44;3.60;99.90
25342;DHT22;13298;48.792;9.154;2023-12-07T14:13:11;3.60;99.90
25342;DHT22;13298;48.792;9.154;2023-12-07T14:15:36;3.60;99.90
25342;DHT22;13298;48.792;9.154;2023-12-07T14:18:02;3.60;99.90
25342;DHT22;13298;48.792;9.154;2023-12-07T14:20:28;3.60;99.90
25342;DHT22;13298;48.792;9.154;2023-12-07T14:22:55;3.60;99.90
25342;DHT22;13298;48.792;9.154;2023-12-07T14:25:21;3.50;99.90
25342;DHT22;13298;48.792;9.154;2023-12-07T14:27:46;3.50;99.90
25342;DHT22;13298;48.792;9.154;2023-12-07T14:30:13;3.40;99.90
25342;DHT22;13298;48.792;9.154;2023-12-07T14:32:39;3.40;99.90
25342;DHT22;13298;48.792;9.154;2023-12-07T14:35:08;3.30;99.90
25342;DHT22;13298;48.792;9.154;2023-12-07T14:37:34;3.20;99.90
25342;DHT22;13298;48.792;9.154;2023-12-07T14:40:00;3.10;99.90
25342;DHT22;13298;48.792;9.154;2023-12-07T14:42:26;3.00;99.90
25342;DHT22;13298;48.792;9.154;2023-12-07T14:44:52;3.00;99.90
25342;DHT22;13298;48.792;9.154;2023-12-07T14:47:17;2.90;99.90
25342;DHT22;13298;48.792;9.154;2023-12-07T14:49:43;2.80;99.90
25342;DHT22;13298;48.792;9.154;2023-12-07T14:52:09;2.70;99.90
25342;DHT22;13298;48.792;9.154;2023-12-07T14:54:37;2.60;99.90
25342;DHT22;13298;48.792;9.154;2023-12-07T14:57:03;2.50;99.90
25342;DHT22;13298;48.792;9.154;2023-12-07T14:59:33;2.40;99.90
25342;DHT22;13298;48.792;9.154;2023-12-07T15:01:59;2.30;99.90
25342;DHT22;13298;48.792;9.154;2023-12-07T15:04:25;2.20;99.90
25342;DHT22;13298;48.792;9.154;2023-12-07T15:06:51;2.10;99.90
25342;DHT22;13298;48.792;9.154;2023-12-07T15:09:19;2.00;99.90
25342;DHT22;13298;48.792;9.154;2023-12-07T15:11:45;2.00;99.90
25342;DHT22;13298;48.792;9.154;2023-12-07T15:14:12;1.90;99.90
25342;DHT22;13298;48.792;9.154;2023-12-07T15:16:38;1.90;99.90
25342;DHT22;13298;48.792;9.154;2023-12-07T15:19:04;1.80;99.90
25342;DHT22;13298;48.792;9.154;2023-12-07T15:21:30;1.70;99.90
25342;DHT22;13298;48.792;9.154;2023-12-07T15:23:58;1.60;99.90
25342;DHT22;13298;48.792;9.154;2023-12-07T15:26:24;1.60;99.90
25342;DHT22;13298;48.792;9.154;2023-12-07T15:28:50;1.50;99.90
25342;DHT22;13298;48.792;9.154;2023-12-07T15:31:16;1.50;99.90
25342;DHT22;13298;48.792;9.154;2023-12-07T15:33:41;1.40;99.90
25342;DHT22;13298;48.792;9.154;2023-12-07T15:36:07;1.40;99.90
25342;DHT22;13298;48.792;9.154;2023-12-07T15:38:33;1.30;99.90
25342;DHT22;13298;48.792;9.154;2023-12-07T15:40:59;1.30;99.90
25342;DHT22;13298;48.792;9.154;2023-12-07T15:43:29;1.40;99.90
25342;DHT22;13298;48.792;9.154;2023-12-07T15:45:55;1.40;99.90
25342;DHT22;13298;48.792;9.154;2023-12-07T15:48:21;1.30;99.90
25342;DHT22;13298;48.792;9.154;2023-12-07T15:50:48;1.30;99.90
25342;DHT22;13298;48.792;9.154;2023-12-07T15:53:14;1.30;99.90